createdAt,value
2023-02-25T00:05:37.715Z,5.30
2023-02-25T00:15:39.013Z,4.57
2023-02-25T00:25:40.311Z,4.60
2023-02-25T00:35:41.657Z,4.20
2023-02-25T00:45:42.931Z,3.97
2023-02-25T00:55:44.206Z,4.13
2023-02-25T01:05:49.502Z,4.30
2023-02-25T01:15:51.076Z,3.75
2023-02-25T01:25:52.496Z,2.92
2023-02-25T01:35:53.752Z,3.72
2023-02-25T01:45:55.052Z,2.97
2023-02-25T01:55:56.280Z,3.03
2023-02-25T02:05:57.557Z,3.00
2023-02-25T02:15:58.860Z,2.53
2023-02-25T02:26:00.313Z,2.28
2023-02-25T02:36:01.828Z,1.80
2023-02-25T02:46:03.140Z,1.90
2023-02-25T02:56:04.446Z,1.73
2023-02-25T03:06:05.783Z,1.73
2023-02-25T03:16:07.053Z,1.60
2023-02-25T03:26:08.314Z,1.55
2023-02-25T03:36:09.632Z,1.75
2023-02-25T03:46:10.953Z,1.10
2023-02-25T03:56:12.262Z,1.27
2023-02-25T04:06:13.602Z,1.40
2023-02-25T04:16:14.879Z,1.70
2023-02-25T04:26:16.433Z,1.02
2023-02-25T04:36:17.656Z,1.02
2023-02-25T04:46:19.030Z,1.60
2023-02-25T04:56:20.352Z,1.20
2023-02-25T05:06:21.939Z,1.55
2023-02-25T05:16:23.769Z,1.50
2023-02-25T05:26:25.724Z,1.40
2023-02-25T05:36:28.391Z,1.63
2023-02-25T05:46:30.275Z,1.30
2023-02-25T05:56:32.459Z,1.33
2023-02-25T06:06:33.872Z,1.20
2023-02-25T06:16:35.247Z,1.70
2023-02-25T06:26:41.937Z,2.05
2023-02-25T06:36:43.265Z,1.92
2023-02-25T06:46:44.628Z,1.65
2023-02-25T06:56:45.984Z,2.00
2023-02-25T07:06:47.304Z,1.88
2023-02-25T07:16:49.600Z,1.52
2023-02-25T07:26:50.946Z,1.60
2023-02-25T07:36:52.203Z,1.60
2023-02-25T07:46:53.502Z,2.30
2023-02-25T07:56:54.794Z,1.75
2023-02-25T08:06:56.067Z,1.52
2023-02-25T08:16:57.579Z,2.00
2023-02-25T08:26:59.050Z,2.20
2023-02-25T08:37:00.324Z,2.40
2023-02-25T08:47:01.721Z,2.50
2023-02-25T08:57:03.076Z,2.30
2023-02-25T09:07:04.377Z,2.53
2023-02-25T09:17:05.660Z,1.77
2023-02-25T09:27:10.481Z,1.92
2023-02-25T09:37:13.696Z,1.88
2023-02-25T09:47:14.965Z,1.42
2023-02-25T09:57:18.952Z,0.88
2023-02-25T10:07:21.069Z,1.20
2023-02-25T10:17:22.311Z,1.35
2023-02-25T10:27:24.463Z,1.20
2023-02-25T10:37:27.069Z,1.50
2023-02-25T10:47:28.484Z,1.38
2023-02-25T10:57:31.109Z,1.08
2023-02-25T11:07:32.667Z,1.13
2023-02-25T11:17:33.871Z,1.05
2023-02-25T11:27:37.895Z,1.45
2023-02-25T11:37:43.153Z,1.00
2023-02-25T11:47:49.388Z,1.10
2023-02-25T11:57:50.662Z,1.13
2023-02-25T12:08:12.044Z,2.00
2023-02-25T12:18:14.411Z,1.42
2023-02-25T12:28:15.667Z,1.50
2023-02-25T12:38:16.922Z,1.73
2023-02-25T12:48:18.235Z,1.30
2023-02-25T12:58:21.255Z,1.10
2023-02-25T13:08:22.792Z,1.60
2023-02-25T13:18:24.106Z,0.80
2023-02-25T13:28:25.388Z,1.73
2023-02-25T13:38:26.778Z,1.42
2023-02-25T13:48:28.043Z,1.58
2023-02-25T13:58:29.337Z,1.10
2023-02-25T14:08:30.789Z,1.23
2023-02-25T14:18:32.020Z,1.23
2023-02-25T14:28:33.272Z,1.25
2023-02-25T14:38:35.757Z,1.27
2023-02-25T14:48:37.017Z,1.13
2023-02-25T14:58:38.292Z,0.93
2023-02-25T15:08:39.757Z,1.33
2023-02-25T15:18:41.145Z,1.30
2023-02-25T15:28:42.476Z,1.90
2023-02-25T15:38:43.747Z,2.08
2023-02-25T15:48:45.016Z,1.55
2023-02-25T15:58:46.284Z,2.13
2023-02-25T16:08:47.728Z,2.33
2023-02-25T16:18:50.455Z,1.20
2023-02-25T16:28:51.760Z,1.75
2023-02-25T16:49:31.521Z,1.95
2023-02-25T16:59:32.729Z,1.23
2023-02-25T17:09:34.099Z,1.60
2023-02-25T17:19:35.419Z,1.70
2023-02-25T17:29:36.666Z,1.70
2023-02-25T17:39:38.077Z,3.63
2023-02-25T17:49:39.338Z,5.43
2023-02-25T17:59:40.588Z,3.58
2023-02-25T18:09:42.133Z,2.50
2023-02-25T18:19:45.686Z,2.90
2023-02-25T18:29:47.443Z,3.10
2023-02-25T18:39:48.764Z,2.47
2023-02-25T18:49:50.081Z,3.50
2023-02-25T18:59:51.323Z,6.70
2023-02-25T19:09:52.880Z,6.80
2023-02-25T19:19:54.210Z,4.97
2023-02-25T19:29:55.637Z,4.07
2023-02-25T19:39:56.900Z,3.20
2023-02-25T19:49:58.152Z,3.25
2023-02-25T19:59:59.424Z,2.72
2023-02-25T20:10:01.068Z,2.90
2023-02-25T20:20:02.308Z,3.33
2023-02-25T20:30:03.840Z,2.47
2023-02-25T20:40:10.711Z,1.67
2023-02-25T20:50:11.964Z,2.10
2023-02-25T21:00:14.563Z,1.98
2023-02-25T21:10:17.394Z,2.63
2023-02-25T21:20:18.819Z,2.38
2023-02-25T21:30:20.130Z,2.53
2023-02-25T21:40:21.393Z,2.70
2023-02-25T21:50:22.797Z,10.38
2023-02-25T22:00:24.132Z,3.17
2023-02-25T22:10:25.537Z,2.67
2023-02-25T22:20:26.759Z,2.90
2023-02-25T22:30:28.169Z,2.20
2023-02-25T22:40:29.575Z,2.70
2023-02-25T22:50:30.917Z,2.80
2023-02-25T23:00:32.247Z,3.53
2023-02-25T23:10:36.129Z,3.88
2023-02-25T23:20:37.359Z,3.33
2023-02-25T23:30:38.962Z,3.28
2023-02-25T23:40:40.233Z,2.38
2023-02-25T23:50:41.457Z,2.72
